sensor_id;sensor_type;location;lat;lon;timestamp;P1;durP1;ratioP1;P2;durP2;ratioP2
55609;SDS011;41486;52.502;13.486;2022-11-30T00:01:18;32.00;;;17.27;;
55609;SDS011;41486;52.502;13.486;2022-11-30T00:03:52;38.55;;;18.40;;
55609;SDS011;41486;52.502;13.486;2022-11-30T00:06:21;38.42;;;19.60;;
55609;SDS011;41486;52.502;13.486;2022-11-30T00:08:52;31.85;;;16.90;;
55609;SDS011;41486;52.502;13.486;2022-11-30T00:11:22;32.50;;;17.90;;
55609;SDS011;41486;52.502;13.486;2022-11-30T00:13:51;34.20;;;18.38;;
55609;SDS011;41486;52.502;13.486;2022-11-30T00:16:19;31.58;;;17.25;;
55609;SDS011;41486;52.502;13.486;2022-11-30T00:18:48;35.35;;;17.70;;
55609;SDS011;41486;52.502;13.486;2022-11-30T00:21:16;38.95;;;18.05;;
55609;SDS011;41486;52.502;13.486;2022-11-30T00:23:45;36.47;;;18.02;;
55609;SDS011;41486;52.502;13.486;2022-11-30T00:26:16;34.33;;;17.00;;
55609;SDS011;41486;52.502;13.486;2022-11-30T00:28:47;31.60;;;18.00;;
55609;SDS011;41486;52.502;13.486;2022-11-30T00:31:16;34.30;;;17.77;;
55609;SDS011;41486;52.502;13.486;2022-11-30T00:33:45;36.85;;;19.25;;
55609;SDS011;41486;52.502;13.486;2022-11-30T00:36:14;34.17;;;18.88;;
55609;SDS011;41486;52.502;13.486;2022-11-30T00:38:43;31.45;;;18.20;;
55609;SDS011;41486;52.502;13.486;2022-11-30T00:41:12;32.17;;;16.77;;
55609;SDS011;41486;52.502;13.486;2022-11-30T00:43:42;33.78;;;17.73;;
55609;SDS011;41486;52.502;13.486;2022-11-30T00:46:11;37.38;;;18.92;;
55609;SDS011;41486;52.502;13.486;2022-11-30T00:48:39;37.38;;;17.30;;
55609;SDS011;41486;52.502;13.486;2022-11-30T00:51:08;37.10;;;19.38;;
55609;SDS011;41486;52.502;13.486;2022-11-30T00:53:37;33.20;;;18.38;;
55609;SDS011;41486;52.502;13.486;2022-11-30T00:56:06;29.77;;;18.48;;
55609;SDS011;41486;52.502;13.486;2022-11-30T00:58:35;37.92;;;18.60;;
55609;SDS011;41486;52.502;13.486;2022-11-30T01:01:04;37.60;;;19.60;;
55609;SDS011;41486;52.502;13.486;2022-11-30T01:03:33;37.08;;;20.02;;
55609;SDS011;41486;52.502;13.486;2022-11-30T01:06:01;39.53;;;19.33;;
55609;SDS011;41486;52.502;13.486;2022-11-30T01:08:30;35.88;;;19.98;;
55609;SDS011;41486;52.502;13.486;2022-11-30T01:11:03;35.55;;;17.80;;
55609;SDS011;41486;52.502;13.486;2022-11-30T01:13:33;32.17;;;18.00;;
55609;SDS011;41486;52.502;13.486;2022-11-30T01:16:01;38.55;;;19.13;;
55609;SDS011;41486;52.502;13.486;2022-11-30T01:18:37;35.33;;;18.80;;
55609;SDS011;41486;52.502;13.486;2022-11-30T01:21:06;39.22;;;19.38;;
55609;SDS011;41486;52.502;13.486;2022-11-30T01:23:34;30.95;;;18.10;;
55609;SDS011;41486;52.502;13.486;2022-11-30T01:26:02;35.38;;;18.20;;
55609;SDS011;41486;52.502;13.486;2022-11-30T01:28:30;33.97;;;18.00;;
55609;SDS011;41486;52.502;13.486;2022-11-30T01:30:59;37.10;;;20.65;;
55609;SDS011;41486;52.502;13.486;2022-11-30T01:33:29;34.33;;;19.25;;
55609;SDS011;41486;52.502;13.486;2022-11-30T01:35:58;39.53;;;21.00;;
55609;SDS011;41486;52.502;13.486;2022-11-30T01:38:29;33.10;;;17.85;;
55609;SDS011;41486;52.502;13.486;2022-11-30T01:40:58;42.70;;;19.92;;
55609;SDS011;41486;52.502;13.486;2022-11-30T01:43:35;36.63;;;18.98;;
55609;SDS011;41486;52.502;13.486;2022-11-30T01:46:13;37.65;;;19.30;;
55609;SDS011;41486;52.502;13.486;2022-11-30T01:48:52;38.92;;;19.17;;
55609;SDS011;41486;52.502;13.486;2022-11-30T01:51:24;37.85;;;19.77;;
55609;SDS011;41486;52.502;13.486;2022-11-30T01:53:53;35.08;;;17.88;;
55609;SDS011;41486;52.502;13.486;2022-11-30T01:56:22;40.05;;;18.85;;
55609;SDS011;41486;52.502;13.486;2022-11-30T01:58:50;41.78;;;18.85;;
55609;SDS011;41486;52.502;13.486;2022-11-30T02:01:18;35.35;;;19.65;;
55609;SDS011;41486;52.502;13.486;2022-11-30T02:03:47;33.75;;;17.65;;
55609;SDS011;41486;52.502;13.486;2022-11-30T02:06:21;34.92;;;16.95;;
55609;SDS011;41486;52.502;13.486;2022-11-30T02:08:51;43.22;;;19.45;;
55609;SDS011;41486;52.502;13.486;2022-11-30T02:11:20;34.40;;;17.73;;
55609;SDS011;41486;52.502;13.486;2022-11-30T02:13:54;38.10;;;20.17;;
55609;SDS011;41486;52.502;13.486;2022-11-30T02:16:34;37.70;;;18.85;;
55609;SDS011;41486;52.502;13.486;2022-11-30T02:19:23;38.47;;;17.45;;
55609;SDS011;41486;52.502;13.486;2022-11-30T02:22:13;33.25;;;17.33;;
55609;SDS011;41486;52.502;13.486;2022-11-30T02:24:53;36.03;;;19.92;;
55609;SDS011;41486;52.502;13.486;2022-11-30T02:27:37;37.50;;;19.17;;
55609;SDS011;41486;52.502;13.486;2022-11-30T02:30:17;31.25;;;17.30;;
55609;SDS011;41486;52.502;13.486;2022-11-30T02:32:47;35.78;;;17.08;;
55609;SDS011;41486;52.502;13.486;2022-11-30T02:35:24;33.58;;;17.55;;
55609;SDS011;41486;52.502;13.486;2022-11-30T02:37:55;33.65;;;18.65;;
55609;SDS011;41486;52.502;13.486;2022-11-30T02:40:24;40.75;;;18.75;;
55609;SDS011;41486;52.502;13.486;2022-11-30T02:42:52;36.60;;;20.00;;
55609;SDS011;41486;52.502;13.486;2022-11-30T02:45:25;35.72;;;19.08;;
55609;SDS011;41486;52.502;13.486;2022-11-30T02:47:58;35.35;;;18.55;;
55609;SDS011;41486;52.502;13.486;2022-11-30T02:50:34;36.88;;;19.42;;
55609;SDS011;41486;52.502;13.486;2022-11-30T02:53:05;34.22;;;17.83;;
55609;SDS011;41486;52.502;13.486;2022-11-30T02:55:35;34.92;;;19.73;;
55609;SDS011;41486;52.502;13.486;2022-11-30T02:58:03;33.92;;;18.27;;
55609;SDS011;41486;52.502;13.486;2022-11-30T03:00:33;35.88;;;17.65;;
55609;SDS011;41486;52.502;13.486;2022-11-30T03:03:00;30.35;;;17.65;;
55609;SDS011;41486;52.502;13.486;2022-11-30T03:05:29;34.70;;;18.58;;
55609;SDS011;41486;52.502;13.486;2022-11-30T03:07:56;31.50;;;16.83;;
55609;SDS011;41486;52.502;13.486;2022-11-30T03:10:25;38.75;;;19.35;;
55609;SDS011;41486;52.502;13.486;2022-11-30T03:12:55;36.65;;;20.08;;
55609;SDS011;41486;52.502;13.486;2022-11-30T03:15:24;45.85;;;19.80;;
55609;SDS011;41486;52.502;13.486;2022-11-30T03:17:53;35.65;;;19.45;;
55609;SDS011;41486;52.502;13.486;2022-11-30T03:20:21;36.40;;;19.90;;
55609;SDS011;41486;52.502;13.486;2022-11-30T03:22:49;36.28;;;18.30;;
55609;SDS011;41486;52.502;13.486;2022-11-30T03:25:17;36.55;;;18.15;;
55609;SDS011;41486;52.502;13.486;2022-11-30T03:27:45;38.63;;;20.08;;
55609;SDS011;41486;52.502;13.486;2022-11-30T03:30:13;38.63;;;19.25;;
55609;SDS011;41486;52.502;13.486;2022-11-30T03:32:41;42.17;;;20.13;;
55609;SDS011;41486;52.502;13.486;2022-11-30T03:35:10;34.03;;;18.30;;
55609;SDS011;41486;52.502;13.486;2022-11-30T03:37:38;38.33;;;18.33;;
55609;SDS011;41486;52.502;13.486;2022-11-30T03:40:06;36.05;;;18.92;;
55609;SDS011;41486;52.502;13.486;2022-11-30T03:42:35;35.47;;;19.00;;
55609;SDS011;41486;52.502;13.486;2022-11-30T03:45:03;33.58;;;20.17;;
55609;SDS011;41486;52.502;13.486;2022-11-30T03:47:32;32.80;;;17.92;;
55609;SDS011;41486;52.502;13.486;2022-11-30T03:50:00;37.58;;;19.27;;
55609;SDS011;41486;52.502;13.486;2022-11-30T03:52:29;36.22;;;18.80;;
55609;SDS011;41486;52.502;13.486;2022-11-30T03:54:57;37.00;;;18.33;;
55609;SDS011;41486;52.502;13.486;2022-11-30T03:57:25;36.53;;;18.48;;
55609;SDS011;41486;52.502;13.486;2022-11-30T03:59:53;34.28;;;17.98;;
55609;SDS011;41486;52.502;13.486;2022-11-30T04:02:21;39.33;;;18.05;;
55609;SDS011;41486;52.502;13.486;2022-11-30T04:04:49;34.72;;;19.02;;
55609;SDS011;41486;52.502;13.486;2022-11-30T04:07:17;35.42;;;19.65;;
55609;SDS011;41486;52.502;13.486;2022-11-30T04:09:46;35.17;;;18.42;;
55609;SDS011;41486;52.502;13.486;2022-11-30T04:12:14;35.70;;;19.00;;
55609;SDS011;41486;52.502;13.486;2022-11-30T04:14:42;35.33;;;17.98;;
55609;SDS011;41486;52.502;13.486;2022-11-30T04:17:11;39.17;;;19.70;;
55609;SDS011;41486;52.502;13.486;2022-11-30T04:19:38;37.05;;;19.17;;
55609;SDS011;41486;52.502;13.486;2022-11-30T04:22:06;54.60;;;27.55;;
55609;SDS011;41486;52.502;13.486;2022-11-30T04:24:34;38.45;;;19.35;;
55609;SDS011;41486;52.502;13.486;2022-11-30T04:27:06;43.10;;;20.65;;
55609;SDS011;41486;52.502;13.486;2022-11-30T04:29:34;40.35;;;20.88;;
55609;SDS011;41486;52.502;13.486;2022-11-30T04:32:02;36.95;;;19.02;;
55609;SDS011;41486;52.502;13.486;2022-11-30T04:34:30;38.95;;;20.92;;
55609;SDS011;41486;52.502;13.486;2022-11-30T04:36:57;38.97;;;21.08;;
55609;SDS011;41486;52.502;13.486;2022-11-30T04:39:26;35.95;;;19.70;;
55609;SDS011;41486;52.502;13.486;2022-11-30T04:41:54;40.97;;;19.58;;
55609;SDS011;41486;52.502;13.486;2022-11-30T04:44:23;38.97;;;19.17;;
55609;SDS011;41486;52.502;13.486;2022-11-30T04:46:51;37.20;;;18.05;;
55609;SDS011;41486;52.502;13.486;2022-11-30T04:49:19;36.75;;;18.20;;
55609;SDS011;41486;52.502;13.486;2022-11-30T04:51:47;32.83;;;18.40;;
55609;SDS011;41486;52.502;13.486;2022-11-30T04:54:15;36.10;;;18.08;;
55609;SDS011;41486;52.502;13.486;2022-11-30T04:56:43;40.75;;;19.75;;
55609;SDS011;41486;52.502;13.486;2022-11-30T04:59:11;38.25;;;19.80;;
55609;SDS011;41486;52.502;13.486;2022-11-30T05:01:40;35.65;;;18.73;;
55609;SDS011;41486;52.502;13.486;2022-11-30T05:04:08;39.60;;;18.95;;
55609;SDS011;41486;52.502;13.486;2022-11-30T05:06:36;37.35;;;19.45;;
55609;SDS011;41486;52.502;13.486;2022-11-30T05:09:04;39.10;;;21.02;;
55609;SDS011;41486;52.502;13.486;2022-11-30T05:11:32;36.38;;;18.85;;
55609;SDS011;41486;52.502;13.486;2022-11-30T05:14:00;40.42;;;20.35;;
55609;SDS011;41486;52.502;13.486;2022-11-30T05:16:28;36.75;;;18.45;;
55609;SDS011;41486;52.502;13.486;2022-11-30T05:18:57;41.60;;;21.30;;
55609;SDS011;41486;52.502;13.486;2022-11-30T05:21:25;34.88;;;22.52;;
55609;SDS011;41486;52.502;13.486;2022-11-30T05:23:53;43.40;;;19.95;;
55609;SDS011;41486;52.502;13.486;2022-11-30T05:26:20;34.40;;;19.75;;
55609;SDS011;41486;52.502;13.486;2022-11-30T05:28:48;38.97;;;20.90;;
55609;SDS011;41486;52.502;13.486;2022-11-30T05:31:16;36.55;;;18.42;;
55609;SDS011;41486;52.502;13.486;2022-11-30T05:33:48;38.67;;;19.67;;
55609;SDS011;41486;52.502;13.486;2022-11-30T05:36:22;37.55;;;20.02;;
55609;SDS011;41486;52.502;13.486;2022-11-30T05:38:50;36.38;;;21.13;;
55609;SDS011;41486;52.502;13.486;2022-11-30T05:41:18;34.35;;;19.42;;
55609;SDS011;41486;52.502;13.486;2022-11-30T05:43:46;35.30;;;18.90;;
55609;SDS011;41486;52.502;13.486;2022-11-30T05:46:14;43.33;;;20.95;;
55609;SDS011;41486;52.502;13.486;2022-11-30T05:48:42;35.05;;;18.25;;
55609;SDS011;41486;52.502;13.486;2022-11-30T05:51:10;39.17;;;19.60;;
55609;SDS011;41486;52.502;13.486;2022-11-30T05:53:42;35.65;;;18.38;;
55609;SDS011;41486;52.502;13.486;2022-11-30T05:56:11;36.85;;;18.50;;
55609;SDS011;41486;52.502;13.486;2022-11-30T05:58:40;40.00;;;20.90;;
55609;SDS011;41486;52.502;13.486;2022-11-30T06:01:15;43.55;;;20.15;;
55609;SDS011;41486;52.502;13.486;2022-11-30T06:03:45;33.67;;;18.80;;
55609;SDS011;41486;52.502;13.486;2022-11-30T06:06:13;37.65;;;19.23;;
55609;SDS011;41486;52.502;13.486;2022-11-30T06:08:43;37.35;;;19.15;;
55609;SDS011;41486;52.502;13.486;2022-11-30T06:11:12;39.67;;;20.45;;
55609;SDS011;41486;52.502;13.486;2022-11-30T06:13:40;39.85;;;20.13;;
55609;SDS011;41486;52.502;13.486;2022-11-30T06:16:08;36.72;;;19.30;;
55609;SDS011;41486;52.502;13.486;2022-11-30T06:18:36;38.85;;;18.75;;
55609;SDS011;41486;52.502;13.486;2022-11-30T06:21:05;35.72;;;19.15;;
55609;SDS011;41486;52.502;13.486;2022-11-30T06:23:35;35.92;;;18.98;;
55609;SDS011;41486;52.502;13.486;2022-11-30T06:26:04;47.60;;;24.10;;
55609;SDS011;41486;52.502;13.486;2022-11-30T06:28:34;37.17;;;18.45;;
55609;SDS011;41486;52.502;13.486;2022-11-30T06:31:03;35.63;;;17.27;;
55609;SDS011;41486;52.502;13.486;2022-11-30T06:33:33;38.90;;;18.88;;
55609;SDS011;41486;52.502;13.486;2022-11-30T06:36:01;38.80;;;19.88;;
55609;SDS011;41486;52.502;13.486;2022-11-30T06:38:29;39.03;;;18.77;;
55609;SDS011;41486;52.502;13.486;2022-11-30T06:41:01;36.40;;;19.92;;
55609;SDS011;41486;52.502;13.486;2022-11-30T06:43:33;41.70;;;20.20;;
55609;SDS011;41486;52.502;13.486;2022-11-30T06:46:02;36.95;;;19.13;;
55609;SDS011;41486;52.502;13.486;2022-11-30T06:48:30;34.40;;;18.65;;
55609;SDS011;41486;52.502;13.486;2022-11-30T06:50:59;35.65;;;17.20;;
55609;SDS011;41486;52.502;13.486;2022-11-30T06:53:27;38.45;;;18.70;;
55609;SDS011;41486;52.502;13.486;2022-11-30T06:55:55;38.75;;;19.38;;
55609;SDS011;41486;52.502;13.486;2022-11-30T06:58:23;41.70;;;20.38;;
55609;SDS011;41486;52.502;13.486;2022-11-30T07:00:52;38.22;;;18.75;;
55609;SDS011;41486;52.502;13.486;2022-11-30T07:03:20;38.20;;;19.02;;
55609;SDS011;41486;52.502;13.486;2022-11-30T07:05:48;41.25;;;19.65;;
55609;SDS011;41486;52.502;13.486;2022-11-30T07:08:16;37.15;;;19.02;;
55609;SDS011;41486;52.502;13.486;2022-11-30T07:10:45;33.75;;;16.80;;
55609;SDS011;41486;52.502;13.486;2022-11-30T07:13:14;36.58;;;19.73;;
55609;SDS011;41486;52.502;13.486;2022-11-30T07:15:43;34.45;;;17.17;;
55609;SDS011;41486;52.502;13.486;2022-11-30T07:18:14;33.90;;;18.67;;
55609;SDS011;41486;52.502;13.486;2022-11-30T07:20:41;32.60;;;19.55;;
55609;SDS011;41486;52.502;13.486;2022-11-30T07:23:09;35.78;;;18.40;;
55609;SDS011;41486;52.502;13.486;2022-11-30T07:25:58;38.83;;;18.05;;
55609;SDS011;41486;52.502;13.486;2022-11-30T07:28:35;34.97;;;19.00;;
55609;SDS011;41486;52.502;13.486;2022-11-30T07:31:14;38.17;;;18.90;;
55609;SDS011;41486;52.502;13.486;2022-11-30T07:33:45;43.58;;;19.02;;
55609;SDS011;41486;52.502;13.486;2022-11-30T07:36:14;38.38;;;18.20;;
55609;SDS011;41486;52.502;13.486;2022-11-30T07:38:43;38.35;;;18.60;;
55609;SDS011;41486;52.502;13.486;2022-11-30T07:41:11;39.72;;;18.77;;
55609;SDS011;41486;52.502;13.486;2022-11-30T07:43:40;38.25;;;18.77;;
55609;SDS011;41486;52.502;13.486;2022-11-30T07:46:08;33.83;;;18.90;;
55609;SDS011;41486;52.502;13.486;2022-11-30T07:48:39;36.10;;;17.92;;
55609;SDS011;41486;52.502;13.486;2022-11-30T07:51:11;32.92;;;18.45;;
55609;SDS011;41486;52.502;13.486;2022-11-30T07:53:40;37.47;;;19.25;;
55609;SDS011;41486;52.502;13.486;2022-11-30T07:56:09;34.83;;;18.52;;
55609;SDS011;41486;52.502;13.486;2022-11-30T07:58:38;35.63;;;17.83;;
55609;SDS011;41486;52.502;13.486;2022-11-30T08:01:07;36.55;;;19.27;;
55609;SDS011;41486;52.502;13.486;2022-11-30T08:03:37;34.78;;;18.70;;
55609;SDS011;41486;52.502;13.486;2022-11-30T08:06:06;35.63;;;16.80;;
55609;SDS011;41486;52.502;13.486;2022-11-30T08:08:37;36.42;;;20.25;;
55609;SDS011;41486;52.502;13.486;2022-11-30T08:11:07;39.03;;;20.15;;
55609;SDS011;41486;52.502;13.486;2022-11-30T08:13:37;35.72;;;17.55;;
55609;SDS011;41486;52.502;13.486;2022-11-30T08:16:06;36.97;;;18.42;;
55609;SDS011;41486;52.502;13.486;2022-11-30T08:18:37;35.08;;;18.02;;
55609;SDS011;41486;52.502;13.486;2022-11-30T08:21:06;35.85;;;16.92;;
55609;SDS011;41486;52.502;13.486;2022-11-30T08:23:37;40.63;;;18.88;;
55609;SDS011;41486;52.502;13.486;2022-11-30T08:26:07;37.47;;;18.98;;
55609;SDS011;41486;52.502;13.486;2022-11-30T08:28:37;38.63;;;20.63;;
55609;SDS011;41486;52.502;13.486;2022-11-30T08:31:06;39.15;;;19.05;;
55609;SDS011;41486;52.502;13.486;2022-11-30T08:33:35;47.78;;;21.98;;
55609;SDS011;41486;52.502;13.486;2022-11-30T08:36:04;52.70;;;26.80;;
55609;SDS011;41486;52.502;13.486;2022-11-30T08:38:34;38.17;;;19.98;;
55609;SDS011;41486;52.502;13.486;2022-11-30T08:41:04;43.45;;;21.00;;
55609;SDS011;41486;52.502;13.486;2022-11-30T08:43:33;41.58;;;19.90;;
55609;SDS011;41486;52.502;13.486;2022-11-30T08:46:02;36.35;;;19.70;;
55609;SDS011;41486;52.502;13.486;2022-11-30T08:48:52;33.13;;;17.35;;
55609;SDS011;41486;52.502;13.486;2022-11-30T08:51:40;39.03;;;20.15;;
55609;SDS011;41486;52.502;13.486;2022-11-30T08:54:28;33.65;;;18.70;;
55609;SDS011;41486;52.502;13.486;2022-11-30T08:56:57;34.55;;;18.38;;
55609;SDS011;41486;52.502;13.486;2022-11-30T08:59:26;31.08;;;17.27;;
55609;SDS011;41486;52.502;13.486;2022-11-30T09:01:57;35.00;;;17.60;;
55609;SDS011;41486;52.502;13.486;2022-11-30T09:04:25;34.78;;;18.67;;
55609;SDS011;41486;52.502;13.486;2022-11-30T09:06:53;37.00;;;17.83;;
55609;SDS011;41486;52.502;13.486;2022-11-30T09:09:25;35.95;;;18.33;;
55609;SDS011;41486;52.502;13.486;2022-11-30T09:11:54;33.90;;;18.42;;
55609;SDS011;41486;52.502;13.486;2022-11-30T09:14:24;34.30;;;18.25;;
55609;SDS011;41486;52.502;13.486;2022-11-30T09:16:53;32.35;;;16.77;;
55609;SDS011;41486;52.502;13.486;2022-11-30T09:19:23;37.22;;;17.63;;
55609;SDS011;41486;52.502;13.486;2022-11-30T09:21:52;33.25;;;19.60;;
55609;SDS011;41486;52.502;13.486;2022-11-30T09:24:20;40.40;;;18.90;;
55609;SDS011;41486;52.502;13.486;2022-11-30T09:26:50;33.33;;;19.27;;
55609;SDS011;41486;52.502;13.486;2022-11-30T09:29:21;34.72;;;18.88;;
55609;SDS011;41486;52.502;13.486;2022-11-30T09:31:50;35.17;;;17.73;;
55609;SDS011;41486;52.502;13.486;2022-11-30T09:34:18;41.97;;;18.13;;
55609;SDS011;41486;52.502;13.486;2022-11-30T09:36:50;36.97;;;19.35;;
55609;SDS011;41486;52.502;13.486;2022-11-30T09:39:20;33.45;;;17.92;;
55609;SDS011;41486;52.502;13.486;2022-11-30T09:42:06;38.03;;;18.02;;
55609;SDS011;41486;52.502;13.486;2022-11-30T09:44:50;41.95;;;18.33;;
55609;SDS011;41486;52.502;13.486;2022-11-30T09:47:38;32.53;;;17.40;;
55609;SDS011;41486;52.502;13.486;2022-11-30T09:50:31;32.67;;;17.60;;
55609;SDS011;41486;52.502;13.486;2022-11-30T09:53:04;39.23;;;20.77;;
55609;SDS011;41486;52.502;13.486;2022-11-30T09:55:36;28.48;;;18.00;;
55609;SDS011;41486;52.502;13.486;2022-11-30T09:58:09;33.45;;;18.13;;
55609;SDS011;41486;52.502;13.486;2022-11-30T10:00:47;34.53;;;19.08;;
55609;SDS011;41486;52.502;13.486;2022-11-30T10:03:19;35.97;;;20.02;;
55609;SDS011;41486;52.502;13.486;2022-11-30T10:05:51;38.83;;;19.88;;
55609;SDS011;41486;52.502;13.486;2022-11-30T10:08:44;36.13;;;19.70;;
55609;SDS011;41486;52.502;13.486;2022-11-30T10:11:23;44.47;;;21.90;;
55609;SDS011;41486;52.502;13.486;2022-11-30T10:14:10;34.65;;;19.50;;
55609;SDS011;41486;52.502;13.486;2022-11-30T10:16:56;34.63;;;18.88;;
55609;SDS011;41486;52.502;13.486;2022-11-30T10:22:08;31.63;;;17.10;;
55609;SDS011;41486;52.502;13.486;2022-11-30T10:24:49;46.13;;;25.23;;
55609;SDS011;41486;52.502;13.486;2022-11-30T10:27:38;40.53;;;21.83;;
55609;SDS011;41486;52.502;13.486;2022-11-30T10:30:16;40.15;;;20.77;;
55609;SDS011;41486;52.502;13.486;2022-11-30T10:32:49;39.50;;;21.02;;
55609;SDS011;41486;52.502;13.486;2022-11-30T10:35:22;33.38;;;18.38;;
55609;SDS011;41486;52.502;13.486;2022-11-30T10:38:03;37.55;;;19.33;;
55609;SDS011;41486;52.502;13.486;2022-11-30T10:40:43;34.05;;;19.08;;
55609;SDS011;41486;52.502;13.486;2022-11-30T10:43:18;36.08;;;17.75;;
55609;SDS011;41486;52.502;13.486;2022-11-30T10:45:52;33.40;;;18.20;;
55609;SDS011;41486;52.502;13.486;2022-11-30T10:48:22;35.67;;;17.38;;
55609;SDS011;41486;52.502;13.486;2022-11-30T10:53:27;30.33;;;16.67;;
55609;SDS011;41486;52.502;13.486;2022-11-30T10:55:57;31.85;;;18.80;;
55609;SDS011;41486;52.502;13.486;2022-11-30T10:58:29;32.65;;;17.13;;
55609;SDS011;41486;52.502;13.486;2022-11-30T11:01:02;33.70;;;18.10;;
55609;SDS011;41486;52.502;13.486;2022-11-30T11:03:32;32.35;;;18.38;;
55609;SDS011;41486;52.502;13.486;2022-11-30T11:06:03;31.58;;;17.52;;
55609;SDS011;41486;52.502;13.486;2022-11-30T11:08:37;29.98;;;18.52;;
55609;SDS011;41486;52.502;13.486;2022-11-30T11:16:54;33.60;;;18.77;;
55609;SDS011;41486;52.502;13.486;2022-11-30T11:19:29;32.58;;;18.23;;
55609;SDS011;41486;52.502;13.486;2022-11-30T11:22:04;36.70;;;19.90;;
55609;SDS011;41486;52.502;13.486;2022-11-30T11:24:40;36.15;;;19.17;;
55609;SDS011;41486;52.502;13.486;2022-11-30T11:27:10;36.95;;;19.40;;
55609;SDS011;41486;52.502;13.486;2022-11-30T11:29:56;33.75;;;18.23;;
55609;SDS011;41486;52.502;13.486;2022-11-30T11:32:31;32.42;;;18.45;;
55609;SDS011;41486;52.502;13.486;2022-11-30T11:35:00;42.17;;;19.63;;
55609;SDS011;41486;52.502;13.486;2022-11-30T11:37:31;38.65;;;17.92;;
55609;SDS011;41486;52.502;13.486;2022-11-30T11:40:08;37.50;;;19.00;;
55609;SDS011;41486;52.502;13.486;2022-11-30T11:42:42;34.28;;;18.15;;
55609;SDS011;41486;52.502;13.486;2022-11-30T11:45:15;38.35;;;18.17;;
55609;SDS011;41486;52.502;13.486;2022-11-30T11:47:45;33.47;;;17.95;;
55609;SDS011;41486;52.502;13.486;2022-11-30T11:50:23;34.08;;;17.45;;
55609;SDS011;41486;52.502;13.486;2022-11-30T11:53:18;33.05;;;18.35;;
55609;SDS011;41486;52.502;13.486;2022-11-30T11:55:51;36.35;;;18.85;;
55609;SDS011;41486;52.502;13.486;2022-11-30T11:58:32;33.85;;;18.70;;
55609;SDS011;41486;52.502;13.486;2022-11-30T12:01:05;35.60;;;16.80;;
55609;SDS011;41486;52.502;13.486;2022-11-30T12:04:02;40.50;;;19.67;;
55609;SDS011;41486;52.502;13.486;2022-11-30T12:06:41;36.33;;;18.23;;
55609;SDS011;41486;52.502;13.486;2022-11-30T12:09:14;36.75;;;19.63;;
55609;SDS011;41486;52.502;13.486;2022-11-30T12:11:46;40.95;;;19.38;;
55609;SDS011;41486;52.502;13.486;2022-11-30T12:14:16;38.47;;;21.27;;
55609;SDS011;41486;52.502;13.486;2022-11-30T12:19:41;40.20;;;19.55;;
55609;SDS011;41486;52.502;13.486;2022-11-30T12:22:26;35.75;;;18.83;;
55609;SDS011;41486;52.502;13.486;2022-11-30T12:25:19;34.97;;;17.30;;
55609;SDS011;41486;52.502;13.486;2022-11-30T12:27:54;33.67;;;19.48;;
55609;SDS011;41486;52.502;13.486;2022-11-30T12:30:42;35.95;;;19.65;;
55609;SDS011;41486;52.502;13.486;2022-11-30T12:33:22;40.97;;;22.10;;
55609;SDS011;41486;52.502;13.486;2022-11-30T12:36:00;41.28;;;20.75;;
55609;SDS011;41486;52.502;13.486;2022-11-30T12:38:36;42.72;;;21.20;;
55609;SDS011;41486;52.502;13.486;2022-11-30T12:41:18;38.40;;;20.20;;
55609;SDS011;41486;52.502;13.486;2022-11-30T12:44:00;40.30;;;21.83;;
55609;SDS011;41486;52.502;13.486;2022-11-30T12:46:39;41.97;;;20.90;;
55609;SDS011;41486;52.502;13.486;2022-11-30T12:49:22;41.25;;;21.67;;
55609;SDS011;41486;52.502;13.486;2022-11-30T12:52:03;39.92;;;22.13;;
55609;SDS011;41486;52.502;13.486;2022-11-30T12:54:44;40.92;;;20.80;;
55609;SDS011;41486;52.502;13.486;2022-11-30T12:57:22;43.75;;;21.83;;
55609;SDS011;41486;52.502;13.486;2022-11-30T12:59:55;38.38;;;19.35;;
55609;SDS011;41486;52.502;13.486;2022-11-30T13:02:48;41.65;;;20.60;;
55609;SDS011;41486;52.502;13.486;2022-11-30T13:05:37;37.90;;;19.73;;
55609;SDS011;41486;52.502;13.486;2022-11-30T13:08:10;42.53;;;20.40;;
55609;SDS011;41486;52.502;13.486;2022-11-30T13:10:45;45.20;;;21.52;;
55609;SDS011;41486;52.502;13.486;2022-11-30T13:13:17;36.53;;;21.00;;
55609;SDS011;41486;52.502;13.486;2022-11-30T13:15:50;40.17;;;20.10;;
55609;SDS011;41486;52.502;13.486;2022-11-30T13:18:21;44.33;;;22.20;;
55609;SDS011;41486;52.502;13.486;2022-11-30T13:20:51;37.30;;;20.45;;
55609;SDS011;41486;52.502;13.486;2022-11-30T13:23:33;38.25;;;20.00;;
55609;SDS011;41486;52.502;13.486;2022-11-30T13:26:05;39.47;;;21.08;;
55609;SDS011;41486;52.502;13.486;2022-11-30T13:28:48;48.38;;;21.67;;
55609;SDS011;41486;52.502;13.486;2022-11-30T13:31:23;40.15;;;22.33;;
55609;SDS011;41486;52.502;13.486;2022-11-30T13:36:29;39.78;;;20.55;;
55609;SDS011;41486;52.502;13.486;2022-11-30T13:39:07;39.10;;;20.90;;
55609;SDS011;41486;52.502;13.486;2022-11-30T13:47:51;43.85;;;21.42;;
55609;SDS011;41486;52.502;13.486;2022-11-30T13:50:25;44.95;;;21.20;;
55609;SDS011;41486;52.502;13.486;2022-11-30T13:53:05;44.55;;;22.00;;
55609;SDS011;41486;52.502;13.486;2022-11-30T13:55:49;45.45;;;23.48;;
55609;SDS011;41486;52.502;13.486;2022-11-30T13:58:22;42.22;;;21.27;;
55609;SDS011;41486;52.502;13.486;2022-11-30T14:01:01;48.85;;;22.63;;
55609;SDS011;41486;52.502;13.486;2022-11-30T14:07:02;47.25;;;22.52;;
55609;SDS011;41486;52.502;13.486;2022-11-30T14:09:54;43.90;;;20.27;;
55609;SDS011;41486;52.502;13.486;2022-11-30T14:15:26;45.72;;;21.13;;
55609;SDS011;41486;52.502;13.486;2022-11-30T14:18:24;44.03;;;20.48;;
55609;SDS011;41486;52.502;13.486;2022-11-30T14:21:00;44.85;;;19.20;;
55609;SDS011;41486;52.502;13.486;2022-11-30T14:23:31;55.70;;;21.02;;
55609;SDS011;41486;52.502;13.486;2022-11-30T14:26:10;56.55;;;22.67;;
55609;SDS011;41486;52.502;13.486;2022-11-30T14:28:41;55.25;;;21.73;;
55609;SDS011;41486;52.502;13.486;2022-11-30T14:31:20;48.58;;;21.48;;
55609;SDS011;41486;52.502;13.486;2022-11-30T14:33:54;47.90;;;20.33;;
55609;SDS011;41486;52.502;13.486;2022-11-30T14:36:27;51.17;;;20.83;;
55609;SDS011;41486;52.502;13.486;2022-11-30T14:39:23;49.38;;;21.90;;
55609;SDS011;41486;52.502;13.486;2022-11-30T14:41:53;56.00;;;23.88;;
55609;SDS011;41486;52.502;13.486;2022-11-30T14:44:21;54.58;;;23.08;;
55609;SDS011;41486;52.502;13.486;2022-11-30T14:46:51;54.55;;;23.05;;
55609;SDS011;41486;52.502;13.486;2022-11-30T14:49:21;54.10;;;22.60;;
55609;SDS011;41486;52.502;13.486;2022-11-30T14:51:51;48.55;;;20.38;;
55609;SDS011;41486;52.502;13.486;2022-11-30T14:54:38;52.78;;;23.35;;
55609;SDS011;41486;52.502;13.486;2022-11-30T14:57:14;55.92;;;23.00;;
55609;SDS011;41486;52.502;13.486;2022-11-30T14:59:49;55.08;;;21.30;;
55609;SDS011;41486;52.502;13.486;2022-11-30T15:02:21;50.47;;;21.08;;
55609;SDS011;41486;52.502;13.486;2022-11-30T15:04:56;59.17;;;20.63;;
55609;SDS011;41486;52.502;13.486;2022-11-30T15:07:25;50.22;;;22.83;;